Time;durP1;ratioP1;P1;durP2;ratioP2;P2;SDS_P1;SDS_P2;PMS_P1;PMS_P2;Temp;Humidity;BMP_temperature;BMP_pressure;BME280_temperature;BME280_humidity;BME280_pressure;Samples;Min_cycle;Max_cycle;Signal;HPM_P1;HPM_P2
2022/01/01 00:01:09;;;;;;;14.77;8.73;;;;;;;;;;10309125;28;20091;-56
2022/01/01 00:06:09;;;;;;;11.27;8.75;;;;;;;;;;10309921;28;20509;-56
2022/01/01 00:11:07;;;;;;;8.15;7.28;;;;;;;;;;10301366;28;20136;-56
2022/01/01 00:16:21;;;;;;;10.63;7.63;;;;;;;;;;10302176;28;20071;-57
2022/01/01 00:21:21;;;;;;;10.52;7.85;;;;;;;;;;10311876;28;20075;-56
2022/01/01 00:26:19;;;;;;;9.05;8.00;;;;;;;;;;10300378;28;20197;-55
2022/01/01 00:31:18;;;;;;;8.02;6.45;;;;;;;;;;10305507;28;20068;-57
2022/01/01 00:36:16;;;;;;;10.40;7.47;;;;;;;;;;10302955;28;20120;-56
2022/01/01 00:41:16;;;;;;;11.55;10.00;;;;;;;;;;10309732;28;20072;-56
2022/01/01 00:46:14;;;;;;;13.43;10.70;;;;;;;;;;10307475;28;20484;-57
2022/01/01 00:51:12;;;;;;;11.90;8.40;;;;;;;;;;10293533;28;20134;-56
2022/01/01 00:56:11;;;;;;;7.57;6.78;;;;;;;;;;10302770;28;20170;-57
2022/01/01 01:01:10;;;;;;;10.50;7.18;;;;;;;;;;10297215;28;20131;-57
2022/01/01 01:06:10;;;;;;;8.98;7.55;;;;;;;;;;10305693;28;20063;-57
2022/01/01 01:11:09;;;;;;;8.18;7.15;;;;;;;;;;10301227;28;20472;-58
2022/01/01 01:16:07;;;;;;;8.93;6.88;;;;;;;;;;10306026;28;20087;-57
2022/01/01 01:21:07;;;;;;;8.18;5.65;;;;;;;;;;10298491;28;20180;-55
2022/01/01 01:26:06;;;;;;;9.00;5.85;;;;;;;;;;10307268;28;20067;-57
2022/01/01 01:31:04;;;;;;;6.43;5.25;;;;;;;;;;10305110;28;20087;-57
2022/01/01 01:36:02;;;;;;;7.43;5.95;;;;;;;;;;10299452;28;20481;-57
2022/01/01 01:41:02;;;;;;;8.93;6.70;;;;;;;;;;10306633;28;20143;-57
2022/01/01 01:46:04;;;;;;;7.10;6.28;;;;;;;;;;10303950;28;20492;-57
2022/01/01 01:51:03;;;;;;;7.45;5.50;;;;;;;;;;10302846;28;20120;-57
2022/01/01 01:56:03;;;;;;;8.43;7.18;;;;;;;;;;10304486;28;20083;-56
2022/01/01 02:01:20;;;;;;;10.00;5.68;;;;;;;;;;10303052;28;20083;-58
2022/01/01 02:06:20;;;;;;;11.50;7.00;;;;;;;;;;10289811;28;20068;-57
2022/01/01 02:11:21;;;;;;;9.77;7.40;;;;;;;;;;10300393;28;20679;-55
2022/01/01 02:16:39;;;;;;;9.10;6.18;;;;;;;;;;10294955;28;20155;-55
2022/01/01 02:21:39;;;;;;;6.57;5.18;;;;;;;;;;10303738;28;20624;-57
2022/01/01 02:26:37;;;;;;;7.50;5.32;;;;;;;;;;10316566;28;20065;-57
2022/01/01 02:31:35;;;;;;;7.63;5.82;;;;;;;;;;10306437;28;20100;-56
2022/01/01 02:36:35;;;;;;;10.25;7.13;;;;;;;;;;10312450;28;20083;-57
2022/01/01 02:41:35;;;;;;;6.90;5.70;;;;;;;;;;10298011;28;20127;-54
2022/01/01 02:46:34;;;;;;;11.10;5.93;;;;;;;;;;10304542;28;20127;-56
2022/01/01 02:51:33;;;;;;;8.25;6.57;;;;;;;;;;10300982;28;20340;-56
2022/01/01 02:56:31;;;;;;;8.43;6.30;;;;;;;;;;10305382;28;20148;-58
2022/01/01 03:01:31;;;;;;;10.45;7.47;;;;;;;;;;10300403;28;20139;-57
2022/01/01 03:06:30;;;;;;;7.13;6.10;;;;;;;;;;10310791;28;20087;-57
2022/01/01 03:11:28;;;;;;;7.50;6.22;;;;;;;;;;10316001;28;20068;-55
2022/01/01 03:16:26;;;;;;;6.43;5.50;;;;;;;;;;10316058;28;20064;-56
2022/01/01 03:21:26;;;;;;;7.63;6.00;;;;;;;;;;10315526;28;20106;-56
2022/01/01 03:26:24;;;;;;;9.55;6.97;;;;;;;;;;10316705;28;20132;-57
2022/01/01 03:31:24;;;;;;;9.35;6.38;;;;;;;;;;10315642;28;20071;-57
2022/01/01 03:36:23;;;;;;;7.63;6.40;;;;;;;;;;10314087;28;20071;-56
2022/01/01 03:41:22;;;;;;;8.65;5.97;;;;;;;;;;10313804;28;20083;-57
2022/01/01 03:46:21;;;;;;;7.50;5.82;;;;;;;;;;10314893;28;20841;-57
2022/01/01 03:51:19;;;;;;;5.88;5.30;;;;;;;;;;10315801;28;20548;-57
2022/01/01 03:56:17;;;;;;;6.00;4.90;;;;;;;;;;10314536;28;20516;-57
2022/01/01 04:01:17;;;;;;;7.20;5.65;;;;;;;;;;10314268;28;20664;-57
2022/01/01 04:06:16;;;;;;;9.07;5.72;;;;;;;;;;10313768;28;20056;-57
2022/01/01 04:11:14;;;;;;;6.50;5.45;;;;;;;;;;10313905;28;20082;-55
2022/01/01 04:16:12;;;;;;;9.50;6.50;;;;;;;;;;10312453;28;20068;-57
2022/01/01 04:21:12;;;;;;;9.40;6.05;;;;;;;;;;10312999;28;20064;-58
2022/01/01 04:26:11;;;;;;;6.68;5.47;;;;;;;;;;10313334;28;20095;-57
2022/01/01 04:31:09;;;;;;;8.45;5.70;;;;;;;;;;10311939;28;20079;-57
2022/01/01 04:36:07;;;;;;;8.50;6.80;;;;;;;;;;10313852;28;20079;-56
2022/01/01 04:41:08;;;;;;;8.93;7.00;;;;;;;;;;10312118;28;20075;-57
2022/01/01 04:46:06;;;;;;;7.63;5.90;;;;;;;;;;10310266;28;20474;-55
2022/01/01 04:51:06;;;;;;;7.47;6.00;;;;;;;;;;10312121;28;20075;-57
2022/01/01 04:56:07;;;;;;;10.98;8.25;;;;;;;;;;10310999;28;20497;-56
2022/01/01 05:01:06;;;;;;;11.95;8.52;;;;;;;;;;10310301;28;20079;-56
2022/01/01 05:06:05;;;;;;;9.27;7.80;;;;;;;;;;10312629;28;20084;-58
2022/01/01 05:11:04;;;;;;;10.23;6.97;;;;;;;;;;10311678;28;20075;-57
2022/01/01 05:16:02;;;;;;;9.45;6.43;;;;;;;;;;10309710;28;20079;-57
2022/01/01 05:21:01;;;;;;;9.30;7.65;;;;;;;;;;10312469;28;20079;-58
2022/01/01 05:26:00;;;;;;;12.98;7.07;;;;;;;;;;10310847;28;20072;-57
2022/01/01 05:30:58;;;;;;;11.10;7.80;;;;;;;;;;10310276;28;20473;-56
2022/01/01 05:35:57;;;;;;;10.93;7.82;;;;;;;;;;10310667;28;20056;-56
2022/01/01 05:40:56;;;;;;;9.00;8.05;;;;;;;;;;10306006;28;20054;-57
2022/01/01 05:45:54;;;;;;;13.20;9.30;;;;;;;;;;10311167;28;20438;-56
2022/01/01 05:50:53;;;;;;;12.15;9.48;;;;;;;;;;10307524;28;20072;-56
2022/01/01 05:55:51;;;;;;;13.57;9.05;;;;;;;;;;10309528;28;20509;-58
2022/01/01 06:00:51;;;;;;;16.88;12.27;;;;;;;;;;10308572;28;20080;-58
2022/01/01 06:05:52;;;;;;;22.83;16.77;;;;;;;;;;10309938;28;20072;-58
2022/01/01 06:10:50;;;;;;;12.43;10.10;;;;;;;;;;10310079;28;20519;-57
2022/01/01 06:15:48;;;;;;;16.38;11.52;;;;;;;;;;10310356;28;20064;-56
2022/01/01 06:20:48;;;;;;;13.75;10.40;;;;;;;;;;10309978;28;20068;-57
2022/01/01 06:25:46;;;;;;;13.02;9.15;;;;;;;;;;10306141;28;20076;-56
2022/01/01 06:30:44;;;;;;;12.75;8.98;;;;;;;;;;10307037;28;20095;-57
2022/01/01 06:35:43;;;;;;;19.42;13.18;;;;;;;;;;10310864;28;20064;-58
2022/01/01 06:40:43;;;;;;;12.68;10.52;;;;;;;;;;10308736;28;20509;-57
2022/01/01 06:45:42;;;;;;;19.25;14.43;;;;;;;;;;10303593;28;20103;-58
2022/01/01 06:50:40;;;;;;;12.50;8.73;;;;;;;;;;10309363;28;20073;-58
2022/01/01 06:55:40;;;;;;;18.17;12.57;;;;;;;;;;10308102;28;20528;-56
2022/01/01 07:00:40;;;;;;;25.85;14.63;;;;;;;;;;10307480;28;20080;-58
2022/01/01 07:05:38;;;;;;;14.52;10.43;;;;;;;;;;10306763;28;20075;-57
2022/01/01 07:10:36;;;;;;;14.15;10.27;;;;;;;;;;10317141;28;20068;-58
2022/01/01 07:15:35;;;;;;;15.50;11.60;;;;;;;;;;10316848;28;20080;-57
2022/01/01 07:20:34;;;;;;;16.08;13.20;;;;;;;;;;10309266;28;20072;-57
2022/01/01 07:25:33;;;;;;;12.25;9.75;;;;;;;;;;10315518;28;20064;-57
2022/01/01 07:30:31;;;;;;;13.43;9.63;;;;;;;;;;10313652;28;20055;-59
2022/01/01 07:35:29;;;;;;;19.48;17.48;;;;;;;;;;10310644;28;20465;-56
2022/01/01 07:40:30;;;;;;;11.82;9.93;;;;;;;;;;10313031;28;20068;-58
2022/01/01 07:45:29;;;;;;;24.65;16.55;;;;;;;;;;10308442;28;20071;-56
2022/01/01 07:50:27;;;;;;;14.98;11.15;;;;;;;;;;10315927;28;20060;-58
2022/01/01 07:55:26;;;;;;;12.40;10.52;;;;;;;;;;10315875;28;20064;-57
2022/01/01 08:00:25;;;;;;;17.35;12.07;;;;;;;;;;10313279;28;20076;-55
2022/01/01 08:05:24;;;;;;;12.43;10.10;;;;;;;;;;10314487;28;20544;-56
2022/01/01 08:10:23;;;;;;;14.13;11.70;;;;;;;;;;10310515;28;20061;-57
2022/01/01 08:15:21;;;;;;;22.70;17.65;;;;;;;;;;10307773;28;20064;-57
2022/01/01 08:20:21;;;;;;;13.35;10.93;;;;;;;;;;10310671;28;20068;-57
2022/01/01 08:25:20;;;;;;;14.65;11.75;;;;;;;;;;10309427;28;20076;-57
2022/01/01 08:30:18;;;;;;;12.48;11.13;;;;;;;;;;10306032;28;20098;-54
2022/01/01 08:35:16;;;;;;;38.78;27.65;;;;;;;;;;10309149;28;20094;-55
2022/01/01 08:40:16;;;;;;;18.23;16.25;;;;;;;;;;10308603;28;20064;-57
2022/01/01 08:45:14;;;;;;;30.00;24.90;;;;;;;;;;10311885;28;20072;-57
2022/01/01 08:50:14;;;;;;;24.45;19.00;;;;;;;;;;10311681;28;20071;-57
2022/01/01 08:55:12;;;;;;;29.05;21.75;;;;;;;;;;10309478;28;20060;-55
2022/01/01 09:00:12;;;;;;;23.98;18.27;;;;;;;;;;10310352;28;20095;-57
2022/01/01 09:05:11;;;;;;;24.85;17.73;;;;;;;;;;10308680;28;20072;-56
2022/01/01 09:10:09;;;;;;;18.83;13.85;;;;;;;;;;10307020;28;20162;-55
2022/01/01 09:15:08;;;;;;;18.52;12.20;;;;;;;;;;10309118;28;20544;-58
2022/01/01 09:20:08;;;;;;;19.92;14.90;;;;;;;;;;10305832;28;20072;-58
2022/01/01 09:25:07;;;;;;;24.05;16.60;;;;;;;;;;10315489;28;20048;-55
2022/01/01 09:30:06;;;;;;;23.58;18.55;;;;;;;;;;10310579;28;20450;-56
2022/01/01 09:35:05;;;;;;;20.55;16.40;;;;;;;;;;10304895;28;20095;-56
2022/01/01 09:40:05;;;;;;;25.35;18.55;;;;;;;;;;10305529;28;20064;-56
2022/01/01 09:45:05;;;;;;;66.57;39.08;;;;;;;;;;10301370;28;20076;-57
2022/01/01 09:50:05;;;;;;;50.92;30.13;;;;;;;;;;10304550;28;20320;-57
2022/01/01 09:55:05;;;;;;;26.38;19.15;;;;;;;;;;10308618;28;20071;-57
2022/01/01 10:00:04;;;;;;;23.10;17.10;;;;;;;;;;10304906;28;20650;-56
2022/01/01 10:05:03;;;;;;;37.40;24.98;;;;;;;;;;10308688;28;20076;-58
2022/01/01 10:15:25;;;;;;;29.73;21.75;;;;;;;;;;10467705;27;20392;-57
2022/01/01 10:20:24;;;;;;;17.52;13.07;;;;;;;;;;10469135;27;20074;-57
2022/01/01 10:30:41;;;;;;;13.15;10.70;;;;;;;;;;10467597;27;20063;-56
2022/01/01 10:35:41;;;;;;;21.52;16.42;;;;;;;;;;10464750;27;20054;-58
2022/01/01 10:40:40;;;;;;;21.77;16.23;;;;;;;;;;10464010;27;20069;-57
2022/01/01 10:45:40;;;;;;;13.32;10.35;;;;;;;;;;10466451;27;20065;-57
2022/01/01 10:50:39;;;;;;;12.43;10.73;;;;;;;;;;10467916;27;20101;-56
2022/01/01 10:55:40;;;;;;;18.38;11.65;;;;;;;;;;10468977;27;20074;-58
2022/01/01 11:00:42;;;;;;;12.48;10.02;;;;;;;;;;10468793;27;20093;-58
2022/01/01 11:05:40;;;;;;;15.00;11.23;;;;;;;;;;10467400;27;20078;-55
2022/01/01 11:10:39;;;;;;;27.35;19.08;;;;;;;;;;10466262;27;20402;-57
2022/01/01 11:15:37;;;;;;;39.63;25.00;;;;;;;;;;10465697;27;20079;-57
2022/01/01 11:20:39;;;;;;;14.27;10.55;;;;;;;;;;10448102;27;20503;-58
2022/01/01 11:25:38;;;;;;;12.52;10.88;;;;;;;;;;10445867;27;20066;-57
2022/01/01 11:30:38;;;;;;;13.32;11.45;;;;;;;;;;10439228;27;20089;-57
2022/01/01 11:35:39;;;;;;;41.35;21.52;;;;;;;;;;10437591;27;20152;-58
2022/01/01 11:40:42;;;;;;;15.07;12.88;;;;;;;;;;10438427;27;20078;-58
2022/01/01 11:45:41;;;;;;;11.43;9.20;;;;;;;;;;10437464;27;20059;-57
2022/01/01 11:50:44;;;;;;;14.25;11.35;;;;;;;;;;10437241;27;20074;-58
2022/01/01 11:56:03;;;;;;;14.02;12.07;;;;;;;;;;10437415;27;20069;-57
2022/01/01 12:01:10;;;;;;;19.15;13.05;;;;;;;;;;10437265;27;20082;-58
2022/01/01 12:06:10;;;;;;;14.35;12.45;;;;;;;;;;10437146;27;20076;-57
2022/01/01 12:11:08;;;;;;;16.63;13.95;;;;;;;;;;10436296;27;20078;-58
2022/01/01 12:16:20;;;;;;;25.23;19.20;;;;;;;;;;10436040;27;20097;-58
2022/01/01 12:21:24;;;;;;;42.53;38.10;;;;;;;;;;10436502;27;20067;-58
2022/01/01 12:26:31;;;;;;;30.00;22.27;;;;;;;;;;10436494;27;20078;-57
2022/01/01 12:31:29;;;;;;;32.35;25.48;;;;;;;;;;10435867;27;20079;-57
2022/01/01 12:36:31;;;;;;;26.08;22.95;;;;;;;;;;10435023;27;20039;-57
2022/01/01 12:41:31;;;;;;;23.70;19.67;;;;;;;;;;10436163;27;20071;-58
2022/01/01 12:46:30;;;;;;;15.35;13.65;;;;;;;;;;10435646;27;20067;-58
2022/01/01 12:51:33;;;;;;;31.73;28.27;;;;;;;;;;10432516;27;20066;-55
2022/01/01 12:56:33;;;;;;;27.27;23.23;;;;;;;;;;10425454;27;20492;-53
2022/01/01 13:01:31;;;;;;;41.45;34.63;;;;;;;;;;10421835;27;20143;-54
2022/01/01 13:06:35;;;;;;;43.50;30.40;;;;;;;;;;10429540;27;20503;-53
2022/01/01 13:11:33;;;;;;;65.53;46.58;;;;;;;;;;10425362;27;20059;-51
2022/01/01 13:16:32;;;;;;;24.58;21.98;;;;;;;;;;10428554;27;20067;-53
2022/01/01 13:21:30;;;;;;;21.95;19.65;;;;;;;;;;10427727;27;20063;-53
2022/01/01 13:26:30;;;;;;;63.05;45.80;;;;;;;;;;10430490;27;20067;-55
2022/01/01 13:31:29;;;;;;;13.68;12.10;;;;;;;;;;10433152;27;20094;-58
2022/01/01 13:36:29;;;;;;;15.80;13.38;;;;;;;;;;10430095;27;20464;-56
2022/01/01 13:41:36;;;;;;;50.53;23.98;;;;;;;;;;10425447;27;20074;-57
2022/01/01 13:46:34;;;;;;;29.25;21.70;;;;;;;;;;10432104;27;20689;-57
2022/01/01 13:51:32;;;;;;;15.80;12.93;;;;;;;;;;10432384;27;20063;-57
2022/01/01 13:56:31;;;;;;;16.88;12.88;;;;;;;;;;10433568;27;20071;-56
2022/01/01 14:01:31;;;;;;;13.30;11.48;;;;;;;;;;10429573;27;20066;-55
2022/01/01 14:06:29;;;;;;;18.65;13.73;;;;;;;;;;10423544;27;20476;-56
2022/01/01 14:11:31;;;;;;;43.20;32.45;;;;;;;;;;10425350;27;20498;-57
2022/01/01 14:16:32;;;;;;;56.03;37.17;;;;;;;;;;10428393;28;20075;-57
2022/01/01 14:21:31;;;;;;;37.30;26.30;;;;;;;;;;10423873;28;20067;-58
2022/01/01 14:26:31;;;;;;;23.70;19.30;;;;;;;;;;10426461;28;20082;-56
2022/01/01 14:31:30;;;;;;;30.70;22.92;;;;;;;;;;10430567;28;20055;-57
2022/01/01 14:36:29;;;;;;;55.85;43.40;;;;;;;;;;10423390;28;20122;-56
2022/01/01 14:41:27;;;;;;;26.58;21.42;;;;;;;;;;10425412;28;20093;-53
2022/01/01 14:46:27;;;;;;;25.83;22.48;;;;;;;;;;10431054;28;20512;-54
2022/01/01 14:51:35;;;;;;;22.08;19.80;;;;;;;;;;10427804;28;20085;-56
2022/01/01 14:56:38;;;;;;;19.80;17.25;;;;;;;;;;10426313;28;20059;-55
2022/01/01 15:01:37;;;;;;;24.40;19.30;;;;;;;;;;10438444;27;20471;-58
2022/01/01 15:06:37;;;;;;;42.67;31.38;;;;;;;;;;10438784;27;20514;-57
2022/01/01 15:11:35;;;;;;;37.72;26.15;;;;;;;;;;10437989;27;20090;-58
2022/01/01 15:16:34;;;;;;;82.32;47.97;;;;;;;;;;10435306;27;20389;-54
2022/01/01 15:21:43;;;;;;;96.20;44.83;;;;;;;;;;10434997;27;20070;-55
2022/01/01 15:26:42;;;;;;;98.75;53.10;;;;;;;;;;10432650;27;20484;-57
2022/01/01 15:33:09;;;;;;;34.88;31.23;;;;;;;;;;10438467;27;20074;-52
2022/01/01 15:37:03;;;;;;;23.58;18.20;;;;;;;;;;10438743;27;20077;-56
2022/01/01 15:42:21;;;;;;;50.55;35.90;;;;;;;;;;10439090;27;20074;-59
2022/01/01 15:47:20;;;;;;;97.68;59.30;;;;;;;;;;10438305;27;20068;-56
2022/01/01 15:52:22;;;;;;;80.43;48.60;;;;;;;;;;10437848;27;20313;-58
2022/01/01 15:57:22;;;;;;;63.85;46.97;;;;;;;;;;10435726;27;20074;-58
2022/01/01 16:02:27;;;;;;;52.47;39.95;;;;;;;;;;10437211;27;20072;-57
2022/01/01 16:07:27;;;;;;;67.80;51.50;;;;;;;;;;10435255;27;20067;-58
2022/01/01 16:12:26;;;;;;;46.65;40.67;;;;;;;;;;10436413;27;20073;-58
2022/01/01 16:17:25;;;;;;;49.05;40.65;;;;;;;;;;10435572;27;20079;-56
2022/01/01 16:22:23;;;;;;;44.60;36.13;;;;;;;;;;10434683;27;20547;-58
2022/01/01 16:27:23;;;;;;;37.90;30.83;;;;;;;;;;10428354;27;20089;-58
2022/01/01 16:32:22;;;;;;;37.63;30.30;;;;;;;;;;10435086;27;20070;-56
2022/01/01 16:37:20;;;;;;;41.80;31.38;;;;;;;;;;10432350;27;20408;-59
2022/01/01 16:42:21;;;;;;;42.35;35.55;;;;;;;;;;10432320;27;20077;-58
2022/01/01 16:47:26;;;;;;;63.55;43.50;;;;;;;;;;10413712;27;20158;-54
2022/01/01 16:52:28;;;;;;;37.60;29.90;;;;;;;;;;10435460;27;20075;-59
2022/01/01 16:57:38;;;;;;;42.70;32.60;;;;;;;;;;10435776;27;20074;-52
2022/01/01 17:02:39;;;;;;;40.95;31.02;;;;;;;;;;10432499;27;20081;-53
2022/01/01 17:07:43;;;;;;;31.27;25.08;;;;;;;;;;10415990;27;20074;-58
2022/01/01 17:12:41;;;;;;;32.92;26.38;;;;;;;;;;10431888;27;20524;-56
2022/01/01 17:17:45;;;;;;;36.22;28.42;;;;;;;;;;10430682;27;20348;-58
2022/01/01 17:22:45;;;;;;;36.30;26.90;;;;;;;;;;10431672;27;20073;-59
2022/01/01 17:28:01;;;;;;;37.10;30.00;;;;;;;;;;10428011;27;20066;-58
2022/01/01 17:33:13;;;;;;;70.57;46.80;;;;;;;;;;10429250;27;20070;-57
2022/01/01 17:43:30;;;;;;;49.55;38.72;;;;;;;;;;10430991;27;20464;-57
2022/01/01 17:48:35;;;;;;;96.93;56.22;;;;;;;;;;10429796;27;20059;-56
2022/01/01 17:53:35;;;;;;;94.25;55.20;;;;;;;;;;10426574;27;20062;-58
2022/01/01 17:58:34;;;;;;;91.32;51.38;;;;;;;;;;10431046;27;20074;-58
2022/01/01 18:03:35;;;;;;;45.85;32.50;;;;;;;;;;10424022;27;20066;-56
2022/01/01 18:08:35;;;;;;;37.17;27.38;;;;;;;;;;10425855;27;20055;-55
2022/01/01 18:13:37;;;;;;;30.45;25.23;;;;;;;;;;10426075;27;20094;-58
2022/01/01 18:18:40;;;;;;;47.30;33.75;;;;;;;;;;10429596;28;20094;-56
2022/01/01 18:23:39;;;;;;;30.65;23.25;;;;;;;;;;10431502;28;20085;-57
2022/01/01 18:28:39;;;;;;;26.42;22.45;;;;;;;;;;10431492;28;20468;-57
2022/01/01 18:33:44;;;;;;;44.10;33.50;;;;;;;;;;10433649;27;20473;-57
2022/01/01 18:38:42;;;;;;;34.88;25.05;;;;;;;;;;10440096;27;20067;-54
2022/01/01 18:43:41;;;;;;;36.08;27.48;;;;;;;;;;10440261;27;20463;-57
2022/01/01 18:48:41;;;;;;;35.67;28.38;;;;;;;;;;10440977;27;20078;-59
2022/01/01 18:53:46;;;;;;;48.35;33.13;;;;;;;;;;10440353;27;20089;-59
2022/01/01 18:58:47;;;;;;;39.17;29.33;;;;;;;;;;10439900;27;20063;-55
2022/01/01 19:03:50;;;;;;;31.85;26.15;;;;;;;;;;10438589;27;20067;-58
2022/01/01 19:08:50;;;;;;;33.92;25.15;;;;;;;;;;10437432;27;20070;-58
2022/01/01 19:13:49;;;;;;;31.60;25.55;;;;;;;;;;10434916;27;20322;-59
2022/01/01 19:18:50;;;;;;;29.92;24.95;;;;;;;;;;10436039;27;20079;-58
2022/01/01 19:23:53;;;;;;;28.33;23.43;;;;;;;;;;10432493;27;20071;-57
2022/01/01 19:28:52;;;;;;;33.42;24.33;;;;;;;;;;10433142;27;20085;-58
2022/01/01 19:33:51;;;;;;;26.95;23.08;;;;;;;;;;10434325;27;20067;-58
2022/01/01 19:38:50;;;;;;;29.40;23.52;;;;;;;;;;10432523;27;20066;-55
2022/01/01 19:43:54;;;;;;;29.50;23.67;;;;;;;;;;10431950;27;20499;-59
2022/01/01 19:48:56;;;;;;;30.00;24.48;;;;;;;;;;10430854;27;20074;-58
2022/01/01 19:53:54;;;;;;;29.20;21.17;;;;;;;;;;10436173;27;20273;-58
2022/01/01 19:58:53;;;;;;;28.10;21.52;;;;;;;;;;10438154;27;20275;-58
2022/01/01 20:03:51;;;;;;;27.38;21.92;;;;;;;;;;10430820;27;20698;-58
2022/01/01 20:08:51;;;;;;;46.40;29.65;;;;;;;;;;10434274;27;20071;-57
2022/01/01 20:13:49;;;;;;;29.13;22.23;;;;;;;;;;10438408;27;20082;-58
2022/01/01 20:18:47;;;;;;;23.55;19.48;;;;;;;;;;10415148;27;20075;-58
2022/01/01 20:23:45;;;;;;;24.45;20.95;;;;;;;;;;10429888;27;20063;-58
2022/01/01 20:28:46;;;;;;;27.95;22.20;;;;;;;;;;10431694;27;20074;-57
2022/01/01 20:33:48;;;;;;;28.63;20.90;;;;;;;;;;10434981;27;20063;-57
2022/01/01 20:38:46;;;;;;;31.00;20.65;;;;;;;;;;10433213;27;20066;-58
2022/01/01 20:43:46;;;;;;;27.25;20.25;;;;;;;;;;10435335;27;20488;-57
2022/01/01 20:48:44;;;;;;;24.38;20.05;;;;;;;;;;10427951;27;20078;-58
2022/01/01 20:53:42;;;;;;;24.58;20.65;;;;;;;;;;10430735;27;20071;-59
2022/01/01 20:58:40;;;;;;;26.73;20.60;;;;;;;;;;10433599;27;20077;-54
2022/01/01 21:03:43;;;;;;;26.65;20.30;;;;;;;;;;10434154;27;20055;-55
2022/01/01 21:08:42;;;;;;;28.23;20.45;;;;;;;;;;10435143;27;20475;-55
2022/01/01 21:13:40;;;;;;;25.63;19.63;;;;;;;;;;10434293;27;20171;-57
2022/01/01 21:18:43;;;;;;;24.35;19.55;;;;;;;;;;10434046;27;20487;-58
2022/01/01 21:23:42;;;;;;;25.10;20.85;;;;;;;;;;10429656;27;20124;-58
2022/01/01 21:28:40;;;;;;;25.02;20.08;;;;;;;;;;10432988;27;20105;-58
2022/01/01 21:33:38;;;;;;;22.10;16.88;;;;;;;;;;10429764;27;20051;-57
2022/01/01 21:38:38;;;;;;;19.65;16.77;;;;;;;;;;10433935;27;20092;-57
2022/01/01 21:43:37;;;;;;;24.38;17.40;;;;;;;;;;10428989;27;20071;-56
2022/01/01 21:48:35;;;;;;;22.23;17.23;;;;;;;;;;10429004;27;20538;-59
2022/01/01 21:53:33;;;;;;;20.33;17.27;;;;;;;;;;10433937;27;20062;-59
2022/01/01 21:58:35;;;;;;;21.27;18.02;;;;;;;;;;10428662;27;20059;-59
2022/01/01 22:03:33;;;;;;;32.55;23.85;;;;;;;;;;10430116;27;20101;-58
2022/01/01 22:08:32;;;;;;;27.73;22.00;;;;;;;;;;10433843;27;20070;-57
2022/01/01 22:13:30;;;;;;;29.25;21.67;;;;;;;;;;10432852;27;20086;-58
2022/01/01 22:18:30;;;;;;;25.52;20.15;;;;;;;;;;10432405;28;20089;-56
2022/01/01 22:23:28;;;;;;;26.15;20.05;;;;;;;;;;10432563;28;20500;-57
2022/01/01 22:28:26;;;;;;;23.15;19.15;;;;;;;;;;10402268;28;20047;-59
2022/01/01 22:33:24;;;;;;;21.35;18.17;;;;;;;;;;10433088;28;20069;-58
2022/01/01 22:38:24;;;;;;;21.52;16.95;;;;;;;;;;10432424;28;20579;-59
2022/01/01 22:43:22;;;;;;;20.38;17.67;;;;;;;;;;10429521;28;20071;-58
2022/01/01 22:48:21;;;;;;;24.80;17.67;;;;;;;;;;10432187;28;20061;-58
2022/01/01 22:53:19;;;;;;;21.45;17.08;;;;;;;;;;10430935;28;20071;-58
2022/01/01 22:58:19;;;;;;;27.00;18.83;;;;;;;;;;10433675;28;20545;-59
2022/01/01 23:03:22;;;;;;;20.23;16.30;;;;;;;;;;10432641;28;20097;-58
2022/01/01 23:08:21;;;;;;;19.15;16.65;;;;;;;;;;10432000;28;20496;-57
2022/01/01 23:13:21;;;;;;;20.17;15.32;;;;;;;;;;10430234;28;20062;-58
2022/01/01 23:18:53;;;;;;;19.55;15.93;;;;;;;;;;10432854;27;20093;-58
2022/01/01 23:23:46;;;;;;;19.70;15.00;;;;;;;;;;10435998;27;20518;-54
2022/01/01 23:28:46;;;;;;;16.75;14.68;;;;;;;;;;10440418;27;20089;-56
2022/01/01 23:33:47;;;;;;;18.08;14.55;;;;;;;;;;10438854;27;20071;-58
2022/01/01 23:38:46;;;;;;;18.23;13.05;;;;;;;;;;10438249;27;20075;-57
2022/01/01 23:43:44;;;;;;;16.02;14.23;;;;;;;;;;10440177;27;20083;-59
2022/01/01 23:48:44;;;;;;;18.15;13.88;;;;;;;;;;10439443;27;20039;-57
2022/01/01 23:53:46;;;;;;;20.23;13.60;;;;;;;;;;10438327;27;20035;-57
2022/01/01 23:58:51;;;;;;;18.45;14.18;;;;;;;;;;10438655;27;20519;-55
